createdAt,value
2018-02-14T00:01:09.934Z,0
2018-02-14T00:02:24.866Z,0
2018-02-14T00:03:09.959Z,0
2018-02-14T00:04:09.980Z,0
2018-02-14T00:05:09.722Z,0
2018-02-14T00:06:10.266Z,0
2018-02-14T00:07:24.412Z,0
2018-02-14T00:08:09.767Z,0
2018-02-14T00:09:10.260Z,0
2018-02-14T00:10:10.030Z,0
2018-02-14T00:11:24.972Z,0
2018-02-14T00:12:10.063Z,0
2018-02-14T00:13:10.077Z,0
2018-02-14T00:14:10.095Z,0
2018-02-14T00:15:10.209Z,0
2018-02-14T00:16:10.096Z,0
2018-02-14T00:17:09.849Z,0
2018-02-14T00:18:10.125Z,0
2018-02-14T00:19:10.386Z,0
2018-02-14T00:20:24.804Z,0
2018-02-14T00:21:24.833Z,0
2018-02-14T00:23:24.587Z,0
2018-02-14T00:25:10.193Z,0
2018-02-14T00:26:10.232Z,0
2018-02-14T00:27:10.236Z,0
2018-02-14T00:28:10.218Z,0
2018-02-14T00:30:10.256Z,0
2018-02-14T00:31:25.188Z,0
2018-02-14T00:32:09.775Z,0
2018-02-14T00:33:10.047Z,0
2018-02-14T00:34:24.718Z,0
2018-02-14T00:35:10.064Z,0
2018-02-14T00:36:10.083Z,0
2018-02-14T00:37:10.070Z,0
2018-02-14T00:38:24.764Z,0
2018-02-14T00:39:10.118Z,0
2018-02-14T00:40:10.353Z,0
2018-02-14T00:41:10.132Z,0
2018-02-14T00:42:10.126Z,0
2018-02-14T00:43:10.659Z,0
2018-02-14T00:44:10.408Z,0
2018-02-14T00:45:10.687Z,0
2018-02-14T00:46:24.854Z,0
2018-02-14T00:48:09.948Z,0
2018-02-14T00:49:09.957Z,0
2018-02-14T00:50:25.409Z,0
2018-02-14T00:51:10.496Z,0
2018-02-14T00:52:10.000Z,0
2018-02-14T00:53:24.926Z,0
2018-02-14T00:54:10.271Z,0
2018-02-14T00:55:10.534Z,0
2018-02-14T00:56:10.050Z,0
2018-02-14T00:57:10.561Z,0
2018-02-14T00:58:25.495Z,0
2018-02-14T00:59:10.813Z,0
2018-02-14T01:00:10.600Z,0
2018-02-14T01:01:25.537Z,0
2018-02-14T01:03:10.623Z,0
2018-02-14T01:04:10.635Z,0
2018-02-14T01:05:10.636Z,0
2018-02-14T01:06:25.061Z,0
2018-02-14T01:07:10.695Z,0
2018-02-14T01:08:25.613Z,0
2018-02-14T01:09:10.176Z,0
2018-02-14T01:10:10.453Z,0
2018-02-14T01:11:10.440Z,0
2018-02-14T01:12:10.973Z,0
2018-02-14T01:13:10.573Z,0
2018-02-14T01:14:11.014Z,0
2018-02-14T01:15:25.428Z,0
2018-02-14T01:16:25.448Z,0
2018-02-14T01:17:10.527Z,0
2018-02-14T01:18:10.767Z,0
2018-02-14T01:19:10.798Z,0
2018-02-14T01:20:11.066Z,0
2018-02-14T01:21:11.090Z,0
2018-02-14T01:22:25.769Z,0
2018-02-14T01:23:11.098Z,0
2018-02-14T01:24:10.850Z,0
2018-02-14T01:25:11.110Z,0
2018-02-14T01:26:10.892Z,0
2018-02-14T01:27:25.574Z,0
2018-02-14T01:28:11.160Z,0
2018-02-14T01:29:11.164Z,0
2018-02-14T01:30:11.163Z,0
2018-02-14T01:32:11.183Z,0
2018-02-14T01:33:11.227Z,0
2018-02-14T01:34:11.242Z,0
2018-02-14T01:35:11.235Z,0
2018-02-14T01:36:10.726Z,0
2018-02-14T01:37:25.905Z,0
2018-02-14T01:38:11.307Z,0
2018-02-14T01:39:11.288Z,0
2018-02-14T01:40:11.292Z,0
2018-02-14T01:41:11.139Z,0
2018-02-14T01:42:11.326Z,0
2018-02-14T01:43:10.822Z,0
2018-02-14T01:44:11.069Z,0
2018-02-14T01:45:11.082Z,0
2018-02-14T01:46:10.858Z,0
2018-02-14T01:47:10.854Z,0
2018-02-14T01:49:25.795Z,0
2018-02-14T01:50:25.819Z,0
2018-02-14T01:51:11.164Z,0
2018-02-14T01:52:11.449Z,0
2018-02-14T01:53:11.177Z,0
2018-02-14T01:54:11.422Z,0
2018-02-14T01:55:11.208Z,0
2018-02-14T01:56:10.946Z,0
2018-02-14T01:57:26.148Z,0
2018-02-14T01:59:11.501Z,0
2018-02-14T02:00:10.997Z,0
2018-02-14T02:01:11.288Z,0
2018-02-14T02:02:11.529Z,0
2018-02-14T02:03:11.609Z,0
2018-02-14T02:04:11.554Z,0
2018-02-14T02:05:11.302Z,0
2018-02-14T02:06:11.606Z,0
2018-02-14T02:07:11.596Z,0
2018-02-14T02:08:11.358Z,0
2018-02-14T02:09:26.266Z,0
2018-02-14T02:10:11.360Z,0
2018-02-14T02:11:11.632Z,0
2018-02-14T02:12:11.381Z,0
2018-02-14T02:14:11.438Z,0
2018-02-14T02:15:11.420Z,0
2018-02-14T02:16:11.436Z,0
2018-02-14T02:17:26.357Z,0
2018-02-14T02:18:11.434Z,0
2018-02-14T02:19:11.746Z,0
2018-02-14T02:20:11.221Z,0
2018-02-14T02:21:11.244Z,0
2018-02-14T02:22:11.513Z,0
2018-02-14T02:24:26.437Z,0
2018-02-14T02:25:26.436Z,0
2018-02-14T02:26:11.553Z,0
2018-02-14T02:27:11.904Z,0
2018-02-14T02:28:11.790Z,0
2018-02-14T02:29:11.578Z,0
2018-02-14T02:30:11.849Z,0
2018-02-14T02:31:11.602Z,0
2018-02-14T02:32:11.865Z,0
2018-02-14T02:33:26.292Z,0
2018-02-14T02:34:11.873Z,0
2018-02-14T02:35:11.864Z,0
2018-02-14T02:36:11.669Z,0
2018-02-14T02:37:11.665Z,0
2018-02-14T02:38:11.944Z,0
2018-02-14T02:39:11.957Z,0
2018-02-14T02:40:11.947Z,0
2018-02-14T02:42:11.992Z,0
2018-02-14T02:43:26.663Z,0
2018-02-14T02:44:11.987Z,0
2018-02-14T02:45:12.007Z,0
2018-02-14T02:46:12.026Z,0
2018-02-14T02:47:12.035Z,0
2018-02-14T02:48:11.785Z,0
2018-02-14T02:50:12.058Z,0
2018-02-14T02:51:12.063Z,0
2018-02-14T02:52:11.838Z,0
2018-02-14T02:53:11.841Z,0
2018-02-14T02:54:11.587Z,0
2018-02-14T02:55:12.122Z,0
2018-02-14T02:56:12.101Z,0
2018-02-14T02:57:26.807Z,0
2018-02-14T02:58:11.895Z,0
2018-02-14T02:59:26.565Z,0
2018-02-14T03:00:12.173Z,0
2018-02-14T03:01:11.949Z,0
2018-02-14T03:02:12.193Z,0
2018-02-14T03:03:26.608Z,0
2018-02-14T03:05:11.938Z,0
2018-02-14T03:06:12.226Z,0
2018-02-14T03:07:12.220Z,0
2018-02-14T03:08:12.259Z,0
2018-02-14T03:09:12.263Z,0
2018-02-14T03:10:12.262Z,0
2018-02-14T03:11:12.314Z,0
2018-02-14T03:12:26.970Z,0
2018-02-14T03:13:12.047Z,0
2018-02-14T03:14:11.808Z,0
2018-02-14T03:15:12.075Z,0
2018-02-14T03:16:27.007Z,0
2018-02-14T03:17:11.844Z,0
2018-02-14T03:18:12.102Z,0
2018-02-14T03:19:12.374Z,0
2018-02-14T03:20:12.102Z,0
2018-02-14T03:21:12.141Z,0
2018-02-14T03:22:12.399Z,0
2018-02-14T03:23:12.408Z,0
2018-02-14T03:24:12.272Z,0
2018-02-14T03:25:12.183Z,0
2018-02-14T03:26:11.939Z,0
2018-02-14T03:27:12.191Z,0
2018-02-14T03:28:11.954Z,0
2018-02-14T03:29:12.211Z,0
2018-02-14T03:30:12.509Z,0
2018-02-14T03:31:12.500Z,0
2018-02-14T03:32:11.995Z,0
2018-02-14T03:34:12.285Z,0
2018-02-14T03:35:12.530Z,0
2018-02-14T03:36:12.529Z,0
2018-02-14T03:37:12.060Z,0
2018-02-14T03:38:12.318Z,0
2018-02-14T03:39:12.562Z,0
2018-02-14T03:40:12.333Z,0
2018-02-14T03:41:12.588Z,0
2018-02-14T03:42:12.106Z,0
2018-02-14T03:43:12.622Z,0
2018-02-14T03:45:12.130Z,0
2018-02-14T03:46:12.374Z,0
2018-02-14T03:47:12.397Z,0
2018-02-14T03:48:27.367Z,0
2018-02-14T03:49:27.097Z,0
2018-02-14T03:50:12.427Z,0
2018-02-14T03:51:12.200Z,0
2018-02-14T03:52:12.439Z,0
2018-02-14T03:53:12.729Z,0
2018-02-14T03:54:12.735Z,0
2018-02-14T03:55:12.496Z,0
2018-02-14T03:56:12.858Z,0
2018-02-14T03:57:12.248Z,0
2018-02-14T03:58:12.529Z,0
2018-02-14T03:59:12.267Z,0
2018-02-14T04:00:27.521Z,0
2018-02-14T04:01:12.294Z,0
2018-02-14T04:02:12.830Z,0
2018-02-14T04:03:12.325Z,0
2018-02-14T04:04:27.255Z,0
2018-02-14T04:05:12.879Z,0
2018-02-14T04:06:12.359Z,0
2018-02-14T04:07:12.610Z,0
2018-02-14T04:08:12.645Z,0
2018-02-14T04:09:12.641Z,0
2018-02-14T04:10:12.900Z,0
2018-02-14T04:11:12.651Z,0
2018-02-14T04:12:12.926Z,0
2018-02-14T04:13:12.171Z,0
2018-02-14T04:14:27.597Z,0
2018-02-14T04:15:27.373Z,0
2018-02-14T04:16:27.627Z,0
2018-02-14T04:17:12.997Z,0
2018-02-14T04:18:12.488Z,0
2018-02-14T04:19:12.730Z,0
2018-02-14T04:20:27.659Z,0
2018-02-14T04:22:12.764Z,0
2018-02-14T04:23:13.059Z,0
2018-02-14T04:24:13.058Z,0
2018-02-14T04:25:12.857Z,0
2018-02-14T04:26:13.069Z,0
2018-02-14T04:27:12.891Z,0
2018-02-14T04:28:27.782Z,0
2018-02-14T04:30:13.131Z,0
2018-02-14T04:31:27.775Z,0
2018-02-14T04:32:27.547Z,0
2018-02-14T04:33:13.149Z,0
2018-02-14T04:34:12.905Z,0
2018-02-14T04:35:13.165Z,0
2018-02-14T04:36:12.922Z,0
2018-02-14T04:37:13.200Z,0
2018-02-14T04:38:13.185Z,0
2018-02-14T04:39:12.933Z,0
2018-02-14T04:40:12.970Z,0
2018-02-14T04:41:12.969Z,0
2018-02-14T04:42:12.730Z,0
2018-02-14T04:43:12.755Z,0
2018-02-14T04:44:12.742Z,0
2018-02-14T04:45:12.618Z,0
2018-02-14T04:46:13.293Z,0
2018-02-14T04:47:27.705Z,0
2018-02-14T04:48:27.969Z,0
2018-02-14T04:49:27.984Z,0
2018-02-14T04:50:13.063Z,0
2018-02-14T04:51:13.090Z,0
2018-02-14T04:52:13.375Z,0
2018-02-14T04:53:13.338Z,0
2018-02-14T04:54:12.870Z,0
2018-02-14T04:55:13.116Z,0
2018-02-14T04:56:13.413Z,0
2018-02-14T04:57:13.124Z,0
2018-02-14T04:58:13.155Z,0
2018-02-14T04:59:13.177Z,0
2018-02-14T05:00:13.426Z,0
2018-02-14T05:01:12.917Z,0
2018-02-14T05:02:13.443Z,0
2018-02-14T05:03:13.508Z,0
2018-02-14T05:04:13.230Z,0
2018-02-14T05:05:13.210Z,0
2018-02-14T05:06:13.493Z,0
2018-02-14T05:07:13.241Z,0
2018-02-14T05:08:13.255Z,0
2018-02-14T05:09:12.750Z,0
2018-02-14T05:10:13.284Z,0
2018-02-14T05:12:13.300Z,0
2018-02-14T05:13:13.576Z,0
2018-02-14T05:14:13.574Z,0
2018-02-14T05:15:13.325Z,0
2018-02-14T05:16:13.342Z,0
2018-02-14T05:17:13.626Z,0
2018-02-14T05:18:28.035Z,0
2018-02-14T05:19:28.053Z,0
2018-02-14T05:20:13.454Z,0
2018-02-14T05:21:28.305Z,0
2018-02-14T05:22:13.661Z,0
2018-02-14T05:23:13.666Z,0
2018-02-14T05:24:28.088Z,0
2018-02-14T05:25:13.179Z,0
2018-02-14T05:26:13.751Z,0
2018-02-14T05:27:13.542Z,0
2018-02-14T05:28:13.474Z,0
2018-02-14T05:29:13.490Z,0
2018-02-14T05:30:13.480Z,0
2018-02-14T05:31:13.736Z,0
2018-02-14T05:32:28.182Z,0
2018-02-14T05:33:13.779Z,0
2018-02-14T05:34:27.944Z,0
2018-02-14T05:36:13.560Z,0
2018-02-14T05:37:13.813Z,0
2018-02-14T05:38:13.580Z,0
2018-02-14T05:39:13.317Z,0
2018-02-14T05:40:13.603Z,0
2018-02-14T05:41:13.366Z,0
2018-02-14T05:42:13.610Z,0
2018-02-14T05:43:13.620Z,0
2018-02-14T05:44:13.878Z,4
2018-02-14T05:45:13.649Z,4
2018-02-14T05:46:13.690Z,4
2018-02-14T05:47:13.931Z,0
2018-02-14T05:48:28.351Z,4
2018-02-14T05:49:13.934Z,4
2018-02-14T05:50:13.966Z,4
2018-02-14T05:51:28.645Z,8
2018-02-14T05:52:13.709Z,4
2018-02-14T05:53:14.015Z,8
2018-02-14T05:54:13.987Z,8
2018-02-14T05:55:28.418Z,12
2018-02-14T05:57:14.007Z,16
2018-02-14T05:58:13.778Z,12
2018-02-14T05:59:13.283Z,20
2018-02-14T06:00:13.806Z,24
2018-02-14T06:01:14.039Z,24
2018-02-14T06:02:13.310Z,32
2018-02-14T06:03:14.070Z,36
2018-02-14T06:04:28.753Z,40
2018-02-14T06:05:13.836Z,44
2018-02-14T06:06:14.125Z,56
2018-02-14T06:07:28.835Z,64
2018-02-14T06:08:13.887Z,72
2018-02-14T06:09:28.812Z,84
2018-02-14T06:10:14.137Z,96
2018-02-14T06:11:13.908Z,108
2018-02-14T06:12:28.846Z,124
2018-02-14T06:13:13.946Z,136
2018-02-14T06:14:13.930Z,160
2018-02-14T06:15:14.221Z,176
2018-02-14T06:16:13.989Z,200
2018-02-14T06:17:13.731Z,220
2018-02-14T06:18:13.734Z,244
2018-02-14T06:19:28.922Z,276
2018-02-14T06:20:14.008Z,296
2018-02-14T06:21:14.293Z,328
2018-02-14T06:22:28.443Z,368
2018-02-14T06:23:14.046Z,388
2018-02-14T06:24:14.040Z,428
2018-02-14T06:25:14.069Z,464
2018-02-14T06:26:13.824Z,500
2018-02-14T06:27:14.317Z,544
2018-02-14T06:28:14.094Z,588
2018-02-14T06:29:14.327Z,636
2018-02-14T06:30:29.029Z,696
2018-02-14T06:31:14.399Z,736
2018-02-14T06:32:14.384Z,792
2018-02-14T06:33:29.070Z,860
2018-02-14T06:34:14.412Z,904
2018-02-14T06:35:14.158Z,964
2018-02-14T06:37:14.423Z,1092
2018-02-14T06:38:13.929Z,1160
2018-02-14T06:39:14.214Z,1228
2018-02-14T06:40:14.438Z,1304
2018-02-14T06:41:14.215Z,1384
2018-02-14T06:42:14.217Z,1460
2018-02-14T06:43:29.176Z,1560
2018-02-14T06:44:13.986Z,1624
2018-02-14T06:45:14.264Z,1708
2018-02-14T06:46:14.530Z,1788
2018-02-14T06:47:29.209Z,1900
2018-02-14T06:48:14.298Z,1968
2018-02-14T06:49:14.560Z,2056
2018-02-14T06:50:14.309Z,2148
2018-02-14T06:51:14.583Z,2244
2018-02-14T06:52:14.588Z,2340
2018-02-14T06:53:14.351Z,2432
2018-02-14T06:54:29.287Z,2556
2018-02-14T06:55:14.622Z,2636
2018-02-14T06:56:14.654Z,2736
2018-02-14T06:57:14.391Z,2832
2018-02-14T06:58:14.640Z,2936
2018-02-14T07:00:28.838Z,3152
2018-02-14T07:01:14.420Z,3228
2018-02-14T07:02:14.451Z,3324
2018-02-14T07:03:14.713Z,3428
2018-02-14T07:04:14.449Z,3536
2018-02-14T07:05:14.467Z,3632
2018-02-14T07:06:28.909Z,3760
2018-02-14T07:07:13.976Z,3840
2018-02-14T07:08:29.175Z,3972
2018-02-14T07:09:14.265Z,4048
2018-02-14T07:10:29.449Z,4180
2018-02-14T07:11:14.769Z,4256
2018-02-14T07:12:14.818Z,4364
2018-02-14T07:13:14.814Z,4468
2018-02-14T07:14:14.837Z,4564
2018-02-14T07:15:14.338Z,4668
2018-02-14T07:16:14.596Z,4772
2018-02-14T07:17:14.589Z,4888
2018-02-14T07:19:14.623Z,11108
2018-02-14T07:20:14.640Z,16224
2018-02-14T07:21:14.879Z,18048
2018-02-14T07:23:29.328Z,19680
2018-02-14T07:24:14.934Z,20224
2018-02-14T07:26:29.378Z,21280
2018-02-14T07:27:14.976Z,21088
2018-02-14T07:28:14.959Z,20672
2018-02-14T07:29:15.081Z,22304
2018-02-14T07:30:14.994Z,22496
2018-02-14T07:31:15.003Z,22752
2018-02-14T07:32:29.681Z,23328
2018-02-14T07:34:14.805Z,24288
2018-02-14T07:35:15.045Z,24800
2018-02-14T07:36:14.837Z,24960
2018-02-14T07:38:15.102Z,25728
2018-02-14T07:39:15.117Z,25984
2018-02-14T07:40:15.139Z,25088
2018-02-14T07:41:15.173Z,26464
2018-02-14T07:42:29.826Z,26592
2018-02-14T07:44:29.618Z,26112
2018-02-14T07:45:14.959Z,26688
2018-02-14T07:46:14.971Z,26432
2018-02-14T07:47:29.899Z,23712
2018-02-14T07:48:14.980Z,19808
2018-02-14T07:49:15.265Z,14060
2018-02-14T07:50:14.775Z,12600
2018-02-14T07:51:15.050Z,12472
2018-02-14T07:52:15.299Z,12540
2018-02-14T07:53:30.011Z,12696
2018-02-14T07:54:15.056Z,12720
2018-02-14T07:55:15.095Z,12752
2018-02-14T07:56:15.374Z,12812
2018-02-14T07:58:15.396Z,12860
2018-02-14T07:59:15.424Z,12736
2018-02-14T08:00:14.917Z,12132
2018-02-14T08:02:15.442Z,13096
2018-02-14T08:03:15.226Z,13168
2018-02-14T08:04:15.227Z,13180
2018-02-14T08:05:15.520Z,13296
2018-02-14T08:06:15.503Z,13328
2018-02-14T08:07:15.280Z,13372
2018-02-14T08:08:15.536Z,13372
2018-02-14T08:10:15.588Z,13456
2018-02-14T08:11:15.305Z,13404
2018-02-14T08:12:15.617Z,13436
2018-02-14T08:13:15.618Z,13512
2018-02-14T08:14:15.621Z,13512
2018-02-14T08:15:15.654Z,13564
2018-02-14T08:16:15.383Z,13552
2018-02-14T08:17:15.424Z,13644
2018-02-14T08:18:15.665Z,13576
2018-02-14T08:19:15.695Z,13608
2018-02-14T08:20:15.745Z,13680
2018-02-14T08:21:15.744Z,13732
2018-02-14T08:22:15.488Z,13680
2018-02-14T08:23:15.518Z,13744
2018-02-14T08:24:15.785Z,13688
2018-02-14T08:26:15.573Z,13788
2018-02-14T08:27:15.837Z,13808
2018-02-14T08:28:30.500Z,13832
2018-02-14T08:29:30.011Z,13808
2018-02-14T08:30:15.359Z,13796
2018-02-14T08:31:15.860Z,13908
2018-02-14T08:32:15.628Z,13880
2018-02-14T08:33:30.588Z,13828
2018-02-14T08:34:15.928Z,13976
2018-02-14T08:35:15.947Z,14048
2018-02-14T08:36:15.462Z,14024
2018-02-14T08:37:15.460Z,14144
2018-02-14T08:38:15.490Z,14856
2018-02-14T08:39:15.751Z,15712
2018-02-14T08:40:15.750Z,15616
2018-02-14T08:41:15.757Z,15036
2018-02-14T08:42:16.031Z,15244
2018-02-14T08:43:16.084Z,15104
2018-02-14T08:44:15.826Z,15076
2018-02-14T08:45:30.510Z,15136
2018-02-14T08:46:16.093Z,15144
2018-02-14T08:47:16.110Z,14844
2018-02-14T08:48:16.103Z,15040
2018-02-14T08:49:16.027Z,15072
2018-02-14T08:50:15.911Z,14780
2018-02-14T08:51:30.856Z,14800
2018-02-14T08:52:16.211Z,14824
2018-02-14T08:53:16.206Z,14980
2018-02-14T08:54:16.228Z,14752
2018-02-14T08:55:15.976Z,14772
2018-02-14T08:56:16.243Z,14624
2018-02-14T08:58:16.274Z,14820
2018-02-14T08:59:16.297Z,14824
2018-02-14T09:00:16.311Z,14924
2018-02-14T09:01:30.750Z,14908
2018-02-14T09:02:16.323Z,14864
2018-02-14T09:03:16.356Z,14912
2018-02-14T09:04:16.382Z,14828
2018-02-14T09:05:16.367Z,14948
2018-02-14T09:06:16.404Z,15052
2018-02-14T09:07:16.173Z,15000
2018-02-14T09:08:16.184Z,15016
2018-02-14T09:09:16.198Z,15068
2018-02-14T09:10:16.205Z,15112
2018-02-14T09:11:16.213Z,14976
2018-02-14T09:12:16.242Z,14820
2018-02-14T09:13:16.257Z,14904
2018-02-14T09:14:31.206Z,15064
2018-02-14T09:15:16.549Z,14940
2018-02-14T09:16:16.292Z,14972
2018-02-14T09:17:45.651Z,14856
2018-02-14T09:18:16.581Z,14864
2018-02-14T09:19:16.069Z,14608
2018-02-14T09:20:16.619Z,14748
2018-02-14T09:21:16.128Z,14740
2018-02-14T09:22:16.651Z,14848
2018-02-14T09:23:16.413Z,14828
2018-02-14T09:24:16.683Z,14560
2018-02-14T09:25:16.682Z,14300
2018-02-14T09:26:16.710Z,14020
2018-02-14T09:28:16.768Z,14048
2018-02-14T09:29:16.759Z,14084
2018-02-14T09:30:16.789Z,14048
2018-02-14T09:31:16.521Z,14020
2018-02-14T09:32:31.489Z,13916
2018-02-14T09:33:31.230Z,13920
2018-02-14T09:34:31.255Z,13964
2018-02-14T09:35:16.594Z,13904
2018-02-14T09:36:16.625Z,13860
2018-02-14T09:37:16.887Z,13876
2018-02-14T09:38:16.895Z,13864
2018-02-14T09:39:16.937Z,13824
2018-02-14T09:40:16.428Z,13792
2018-02-14T09:41:16.952Z,13760
2018-02-14T09:42:16.708Z,13732
2018-02-14T09:43:16.974Z,13552
2018-02-14T09:44:16.737Z,13728
2018-02-14T09:45:17.003Z,13780
2018-02-14T09:46:17.006Z,13612
2018-02-14T09:47:16.538Z,13568
2018-02-14T09:48:16.814Z,13524
2018-02-14T09:49:17.072Z,13600
2018-02-14T09:50:16.811Z,13460
2018-02-14T09:51:17.107Z,13472
2018-02-14T09:52:17.125Z,13500
2018-02-14T09:53:17.146Z,13372
2018-02-14T09:54:17.169Z,13532
2018-02-14T09:55:16.659Z,13724
2018-02-14T09:56:17.174Z,13716
2018-02-14T09:57:31.870Z,13940
2018-02-14T09:58:17.233Z,14124
2018-02-14T09:59:17.257Z,14140
2018-02-14T10:00:17.430Z,14132
2018-02-14T10:01:17.299Z,14128
2018-02-14T10:02:17.023Z,13992
2018-02-14T10:03:17.047Z,13852
2018-02-14T10:04:32.001Z,13932
2018-02-14T10:05:17.079Z,14064
2018-02-14T10:06:17.094Z,13920
2018-02-14T10:07:17.386Z,13072
2018-02-14T10:08:17.371Z,13740
2018-02-14T10:09:16.876Z,13788
2018-02-14T10:10:17.428Z,13668
2018-02-14T10:11:17.228Z,13608
2018-02-14T10:12:16.946Z,13636
2018-02-14T10:13:17.469Z,13704
2018-02-14T10:14:31.888Z,13608
2018-02-14T10:15:17.534Z,13692
2018-02-14T10:16:32.199Z,13748
2018-02-14T10:17:31.942Z,13784
2018-02-14T10:18:17.404Z,13712
2018-02-14T10:19:17.298Z,13608
2018-02-14T10:20:32.002Z,13312
2018-02-14T10:21:17.600Z,13088
2018-02-14T10:22:17.349Z,12656
2018-02-14T10:23:17.705Z,12388
2018-02-14T10:24:17.655Z,11872
2018-02-14T10:25:32.072Z,12004
2018-02-14T10:26:17.409Z,11964
2018-02-14T10:28:17.455Z,11508
2018-02-14T10:29:17.476Z,11256
2018-02-14T10:30:17.744Z,11056
2018-02-14T10:31:17.755Z,10708
2018-02-14T10:32:32.444Z,10192
2018-02-14T10:33:17.531Z,9912
2018-02-14T10:34:17.563Z,9576
2018-02-14T10:35:17.817Z,9156
2018-02-14T10:36:32.251Z,8760
2018-02-14T10:38:17.847Z,8392
2018-02-14T10:39:17.644Z,8124
2018-02-14T10:40:17.675Z,7944
2018-02-14T10:41:17.940Z,7680
2018-02-14T10:42:17.693Z,7540
2018-02-14T10:43:17.945Z,7332
2018-02-14T10:44:17.973Z,7176
2018-02-14T10:45:32.670Z,7036
2018-02-14T10:46:18.025Z,6988
2018-02-14T10:47:18.029Z,6876
2018-02-14T10:48:17.776Z,6828
2018-02-14T10:49:17.598Z,6740
2018-02-14T10:50:17.829Z,6636
2018-02-14T10:51:18.091Z,6564
2018-02-14T10:52:32.776Z,6484
2018-02-14T10:53:32.538Z,6440
2018-02-14T10:54:17.885Z,6404
2018-02-14T10:55:18.129Z,6360
2018-02-14T10:56:18.132Z,6320
2018-02-14T10:57:18.182Z,6264
2018-02-14T10:58:17.941Z,6224
2018-02-14T10:59:17.947Z,6180
2018-02-14T11:00:18.229Z,6164
2018-02-14T11:02:17.997Z,6152
2018-02-14T11:03:18.288Z,6152
2018-02-14T11:04:18.288Z,6140
2018-02-14T11:05:18.285Z,6156
2018-02-14T11:06:18.074Z,6160
2018-02-14T11:07:33.012Z,6188
2018-02-14T11:08:18.099Z,6208
2018-02-14T11:09:18.123Z,6204
2018-02-14T11:10:18.378Z,6216
2018-02-14T11:11:33.080Z,6192
2018-02-14T11:12:18.163Z,6156
2018-02-14T11:13:18.445Z,6156
2018-02-14T11:14:18.197Z,6180
2018-02-14T11:15:32.871Z,6212
2018-02-14T11:16:18.479Z,6240
2018-02-14T11:17:17.990Z,6244
2018-02-14T11:18:18.532Z,6268
2018-02-14T11:19:18.278Z,6296
2018-02-14T11:20:32.968Z,6276
2018-02-14T11:21:18.036Z,6268
2018-02-14T11:24:18.611Z,6272
2018-02-14T11:26:18.635Z,6420
2018-02-14T11:27:18.152Z,6552
2018-02-14T11:28:33.073Z,6676
2018-02-14T11:29:18.435Z,6688
2018-02-14T11:30:18.445Z,6708
2018-02-14T11:31:18.760Z,6732
2018-02-14T11:32:33.149Z,6756
2018-02-14T11:33:18.525Z,6768
2018-02-14T11:34:18.769Z,6824
2018-02-14T11:35:18.791Z,6848
2018-02-14T11:36:18.785Z,6856
2018-02-14T11:37:18.582Z,6792
2018-02-14T11:38:18.838Z,6800
2018-02-14T11:39:33.265Z,6700
2018-02-14T11:40:18.865Z,6616
2018-02-14T11:41:18.895Z,6472
2018-02-14T11:42:18.876Z,6592
2018-02-14T11:43:18.680Z,6732
2018-02-14T11:44:18.933Z,6836
2018-02-14T11:45:18.692Z,6940
2018-02-14T11:46:18.978Z,6936
2018-02-14T11:47:33.644Z,6812
2018-02-14T11:48:19.016Z,6828
2018-02-14T11:49:19.009Z,6900
2018-02-14T11:50:18.761Z,6880
2018-02-14T11:51:33.730Z,6776
2018-02-14T11:52:18.810Z,6668
2018-02-14T11:53:18.826Z,6520
2018-02-14T11:54:19.103Z,6328
2018-02-14T11:55:33.831Z,6136
2018-02-14T11:56:19.140Z,6036
2018-02-14T11:57:18.881Z,5880
2018-02-14T11:58:18.915Z,5716
2018-02-14T11:59:19.190Z,5568
2018-02-14T12:00:18.941Z,5432
2018-02-14T12:01:19.213Z,5380
2018-02-14T12:02:18.978Z,5088
2018-02-14T12:03:19.217Z,4956
2018-02-14T12:04:33.934Z,4764
2018-02-14T12:05:19.036Z,4020
2018-02-14T12:06:19.098Z,3620
2018-02-14T12:07:19.309Z,3568
2018-02-14T12:08:19.324Z,4212
2018-02-14T12:09:19.096Z,4504
2018-02-14T12:10:19.082Z,4384
2018-02-14T12:11:33.893Z,4292
2018-02-14T12:12:19.149Z,4408
2018-02-14T12:13:34.077Z,4284
2018-02-14T12:14:19.429Z,4188
2018-02-14T12:15:18.922Z,4072
2018-02-14T12:16:19.450Z,3908
2018-02-14T12:17:19.229Z,3708
2018-02-14T12:18:18.970Z,3320
2018-02-14T12:19:18.991Z,3188
2018-02-14T12:21:18.773Z,3172
2018-02-14T12:22:19.553Z,3992
2018-02-14T12:23:19.315Z,3172
2018-02-14T12:24:19.590Z,3200
2018-02-14T12:25:19.329Z,3212
2018-02-14T12:26:19.618Z,3192
2018-02-14T12:27:34.034Z,3152
2018-02-14T12:28:19.397Z,3136
2018-02-14T12:29:19.657Z,3100
2018-02-14T12:30:19.161Z,3072
2018-02-14T12:31:34.089Z,3048
2018-02-14T12:32:19.466Z,3052
2018-02-14T12:33:19.453Z,3052
2018-02-14T12:35:19.753Z,3060
2018-02-14T12:36:19.263Z,3052
2018-02-14T12:37:19.540Z,3060
2018-02-14T12:38:19.273Z,3088
2018-02-14T12:39:19.816Z,3120
2018-02-14T12:40:19.334Z,3132
2018-02-14T12:41:19.341Z,3140
2018-02-14T12:42:34.506Z,3128
2018-02-14T12:43:19.642Z,3112
2018-02-14T12:44:19.638Z,3100
2018-02-14T12:45:34.327Z,3096
2018-02-14T12:46:19.689Z,3108
2018-02-14T12:48:34.622Z,3172
2018-02-14T12:49:19.944Z,3200
2018-02-14T12:50:19.969Z,3232
2018-02-14T12:51:19.754Z,3268
2018-02-14T12:52:19.742Z,3272
2018-02-14T12:53:20.044Z,3276
2018-02-14T12:54:20.033Z,3280
2018-02-14T12:55:19.810Z,3308
2018-02-14T12:56:34.722Z,3340
2018-02-14T12:58:19.840Z,3388
2018-02-14T12:59:19.872Z,3408
2018-02-14T13:00:20.224Z,3424
2018-02-14T13:01:19.640Z,3436
2018-02-14T13:02:20.172Z,3448
2018-02-14T13:03:34.832Z,3452
2018-02-14T13:04:19.959Z,3456
2018-02-14T13:05:20.072Z,3492
2018-02-14T13:06:20.240Z,3576
2018-02-14T13:07:19.734Z,4296
2018-02-14T13:08:20.275Z,4860
2018-02-14T13:09:20.275Z,3724
2018-02-14T13:10:20.034Z,4096
2018-02-14T13:11:20.049Z,3580
2018-02-14T13:12:20.069Z,3468
2018-02-14T13:13:20.085Z,3396
2018-02-14T13:14:35.018Z,3332
2018-02-14T13:15:19.851Z,3304
2018-02-14T13:16:20.403Z,3292
2018-02-14T13:17:35.072Z,3292
2018-02-14T13:18:19.909Z,3296
2018-02-14T13:19:20.150Z,3280
2018-02-14T13:20:20.185Z,3272
2018-02-14T13:21:20.456Z,3272
2018-02-14T13:22:19.950Z,3276
2018-02-14T13:23:20.479Z,3272
2018-02-14T13:24:20.255Z,3272
2018-02-14T13:25:20.026Z,3256
2018-02-14T13:26:34.949Z,3244
2018-02-14T13:27:20.051Z,3260
2018-02-14T13:28:20.558Z,3276
2018-02-14T13:29:20.300Z,3268
2018-02-14T13:30:35.250Z,3260
2018-02-14T13:31:20.343Z,3264
2018-02-14T13:32:20.613Z,3276
2018-02-14T13:33:20.407Z,3284
2018-02-14T13:34:20.652Z,3276
2018-02-14T13:35:20.412Z,3280
2018-02-14T13:36:20.705Z,3264
2018-02-14T13:37:20.680Z,3216
2018-02-14T13:38:20.466Z,3180
2018-02-14T13:39:20.720Z,3180
2018-02-14T13:40:20.746Z,3180
2018-02-14T13:41:20.501Z,3180
2018-02-14T13:43:20.545Z,3540
2018-02-14T13:44:20.308Z,4528
2018-02-14T13:45:20.840Z,4492
2018-02-14T13:46:35.501Z,3656
2018-02-14T13:47:20.349Z,4388
2018-02-14T13:48:20.604Z,3144
2018-02-14T13:49:20.894Z,3060
2018-02-14T13:50:20.657Z,3036
2018-02-14T13:51:20.922Z,3032
2018-02-14T13:52:20.671Z,3036
2018-02-14T13:53:20.957Z,3032
2018-02-14T13:54:20.946Z,3004
2018-02-14T13:55:20.722Z,2976
2018-02-14T13:56:35.399Z,2960
2018-02-14T13:57:21.007Z,2964
2018-02-14T13:58:35.425Z,2984
2018-02-14T13:59:20.534Z,3020
2018-02-14T14:00:20.907Z,4048
2018-02-14T14:01:20.823Z,4204
2018-02-14T14:02:35.755Z,4196
2018-02-14T14:03:20.845Z,3832
2018-02-14T14:04:21.115Z,3692
2018-02-14T14:05:21.145Z,3428
2018-02-14T14:07:20.662Z,3080
2018-02-14T14:08:21.165Z,3084
2018-02-14T14:09:21.192Z,3200
2018-02-14T14:11:35.883Z,4280
2018-02-14T14:12:35.399Z,4264
2018-02-14T14:13:35.894Z,4272
2018-02-14T14:14:21.271Z,4276
2018-02-14T14:15:21.039Z,4284
2018-02-14T14:16:35.970Z,4272
2018-02-14T14:17:35.968Z,4268
2018-02-14T14:18:21.322Z,4248
2018-02-14T14:19:21.345Z,4208
2018-02-14T14:20:20.575Z,4172
2018-02-14T14:22:21.392Z,4072
2018-02-14T14:23:21.417Z,3768
2018-02-14T14:24:21.424Z,3004
2018-02-14T14:25:21.445Z,2968
2018-02-14T14:26:35.858Z,2936
2018-02-14T14:27:36.138Z,2924
2018-02-14T14:28:21.218Z,2920
2018-02-14T14:29:21.090Z,2944
2018-02-14T14:30:21.271Z,3064
2018-02-14T14:31:21.016Z,3120
2018-02-14T14:32:36.210Z,3480
2018-02-14T14:33:21.528Z,3440
2018-02-14T14:34:21.592Z,3612
2018-02-14T14:35:21.571Z,3556
2018-02-14T14:36:21.088Z,3324